createdAt,value
2024-02-19T00:04:06.450Z,14.46
2024-02-19T00:09:08.856Z,14.41
2024-02-19T00:14:11.039Z,14.38
2024-02-19T00:19:13.417Z,14.34
2024-02-19T00:24:17.582Z,14.31
2024-02-19T00:29:20.107Z,14.27
2024-02-19T00:34:22.814Z,14.27
2024-02-19T00:39:25.187Z,14.26
2024-02-19T00:44:27.317Z,14.29
2024-02-19T00:49:29.467Z,14.31
2024-02-19T00:54:32.110Z,14.36
2024-02-19T00:59:34.412Z,14.40
2024-02-19T01:04:36.861Z,14.44
2024-02-19T01:09:39.388Z,14.46
2024-02-19T01:14:42.259Z,14.47
2024-02-19T01:19:46.332Z,14.47
2024-02-19T01:24:50.110Z,14.42
2024-02-19T01:29:55.638Z,14.38
2024-02-19T01:34:58.715Z,14.35
2024-02-19T01:40:01.156Z,14.33
2024-02-19T01:45:06.548Z,14.32
2024-02-19T01:50:09.209Z,14.29
2024-02-19T01:55:16.223Z,14.26
2024-02-19T02:05:25.020Z,14.15
2024-02-19T02:10:27.256Z,14.13
2024-02-19T02:15:29.483Z,14.09
2024-02-19T02:20:32.659Z,14.06
2024-02-19T02:25:35.192Z,14.02
2024-02-19T02:30:37.646Z,13.99
2024-02-19T02:35:40.095Z,13.95
2024-02-19T02:40:42.331Z,13.92
2024-02-19T02:45:49.012Z,13.90
2024-02-19T02:50:53.236Z,13.91
2024-02-19T02:55:55.454Z,13.88
2024-02-19T03:00:57.935Z,13.87
2024-02-19T03:06:01.497Z,13.87
2024-02-19T03:11:04.952Z,13.88
2024-02-19T03:16:07.859Z,13.88
2024-02-19T03:21:15.116Z,13.89
2024-02-19T03:26:34.368Z,13.89
2024-02-19T03:31:44.897Z,13.86
2024-02-19T03:36:52.538Z,13.81
2024-02-19T03:41:54.774Z,13.76
2024-02-19T03:46:59.444Z,13.74
2024-02-19T03:52:03.215Z,13.69
2024-02-19T03:57:05.993Z,13.65
2024-02-19T04:02:08.264Z,13.61
2024-02-19T04:07:11.425Z,13.57
2024-02-19T04:12:13.808Z,13.53
2024-02-19T04:17:16.220Z,13.49
2024-02-19T04:22:19.723Z,13.47
2024-02-19T04:27:22.344Z,13.45
2024-02-19T04:32:24.518Z,13.44
2024-02-19T04:37:27.152Z,13.43
2024-02-19T04:42:29.624Z,13.43
2024-02-19T04:47:31.984Z,13.45
2024-02-19T04:52:36.992Z,13.46
2024-02-19T04:57:44.517Z,13.48
2024-02-19T05:02:51.184Z,13.49
2024-02-19T05:07:53.438Z,13.51
2024-02-19T05:12:55.689Z,13.53
2024-02-19T05:17:58.021Z,13.52
2024-02-19T05:23:03.501Z,13.53
2024-02-19T05:28:05.862Z,13.56
2024-02-19T05:33:09.167Z,13.56
2024-02-19T05:38:13.299Z,13.57
2024-02-19T05:43:16.052Z,13.57
2024-02-19T05:48:18.458Z,13.60
2024-02-19T05:53:26.879Z,13.62
2024-02-19T05:58:34.356Z,13.62
2024-02-19T06:03:36.934Z,13.61
2024-02-19T06:08:39.903Z,13.58
2024-02-19T06:13:49.678Z,13.55
2024-02-19T06:18:54.348Z,13.53
2024-02-19T06:23:59.068Z,13.53
2024-02-19T06:29:01.587Z,13.54
2024-02-19T06:34:04.826Z,13.56
2024-02-19T06:39:09.638Z,13.58
2024-02-19T06:44:16.556Z,13.59
2024-02-19T06:49:29.224Z,13.60
2024-02-19T06:54:33.000Z,13.59
2024-02-19T06:59:45.775Z,13.59
2024-02-19T07:04:51.999Z,13.61
2024-02-19T07:09:54.352Z,13.64
2024-02-19T07:14:56.924Z,13.69
2024-02-19T07:20:02.404Z,13.80
2024-02-19T07:25:13.751Z,13.86
2024-02-19T07:30:22.859Z,13.89
2024-02-19T07:35:25.336Z,13.94
2024-02-19T07:40:27.591Z,13.96
2024-02-19T07:45:29.806Z,14.00
2024-02-19T07:50:31.837Z,14.02
2024-02-19T07:55:36.498Z,14.07
2024-02-19T08:00:38.978Z,14.10
2024-02-19T08:05:42.043Z,14.15
2024-02-19T08:10:51.925Z,14.23
2024-02-19T08:15:54.330Z,14.35
2024-02-19T08:20:56.591Z,14.44
2024-02-19T08:26:02.270Z,14.52
2024-02-19T08:31:04.733Z,14.60
2024-02-19T08:36:07.303Z,14.72
2024-02-19T08:41:09.395Z,14.83
2024-02-19T08:46:11.531Z,14.90
2024-02-19T08:51:14.008Z,15.12
2024-02-19T08:56:16.746Z,15.19
2024-02-19T09:01:20.349Z,15.25
2024-02-19T09:06:22.691Z,15.30
2024-02-19T09:11:24.918Z,15.45
2024-02-19T09:16:27.449Z,15.73
2024-02-19T09:21:29.731Z,15.88
2024-02-19T09:26:32.003Z,16.10
2024-02-19T09:31:34.591Z,16.51
2024-02-19T09:36:37.096Z,17.01
2024-02-19T10:34:21.020Z,20.18
2024-02-19T10:39:23.661Z,20.40
2024-02-19T10:44:27.562Z,20.60
2024-02-19T10:49:30.664Z,20.82
2024-02-19T10:54:32.970Z,21.25
2024-02-19T10:59:36.987Z,21.52
2024-02-19T11:04:39.448Z,21.77
2024-02-19T11:09:42.808Z,21.94
2024-02-19T11:14:47.000Z,21.69
2024-02-19T11:19:49.128Z,21.35
2024-02-19T11:24:52.346Z,20.97
2024-02-19T11:30:02.989Z,20.88
2024-02-19T11:35:15.661Z,20.80
2024-02-19T11:40:21.082Z,20.32
2024-02-19T11:45:27.258Z,20.17
2024-02-19T11:50:32.814Z,19.90
2024-02-19T11:55:41.031Z,19.40
2024-02-19T12:00:43.316Z,19.31
2024-02-19T12:05:47.472Z,19.11
2024-02-19T12:10:51.838Z,19.11
2024-02-19T12:15:54.201Z,19.08
2024-02-19T12:20:56.614Z,18.94
2024-02-19T12:25:58.770Z,18.97
2024-02-19T12:31:01.341Z,18.96
2024-02-19T12:36:03.865Z,19.01
2024-02-19T12:41:06.174Z,19.07
2024-02-19T12:46:10.061Z,19.04
2024-02-19T12:51:16.425Z,19.23
2024-02-19T12:56:18.781Z,19.46
2024-02-19T13:01:28.072Z,19.43
2024-02-19T13:06:35.092Z,19.53
2024-02-19T13:11:39.755Z,19.59
2024-02-19T13:16:42.170Z,19.77
2024-02-19T13:21:44.858Z,19.87
2024-02-19T13:31:49.650Z,19.43
2024-02-19T13:36:53.885Z,19.30
2024-02-19T13:41:56.417Z,19.01
2024-02-19T13:47:00.056Z,18.85
2024-02-19T13:52:02.599Z,18.99
2024-02-19T13:57:05.344Z,19.16
2024-02-19T14:02:08.899Z,19.30
2024-02-19T14:07:12.023Z,19.53
2024-02-19T14:12:14.336Z,19.64
2024-02-19T14:17:16.554Z,19.75
2024-02-19T14:22:18.928Z,19.78
2024-02-19T14:27:21.282Z,19.70
2024-02-19T14:32:23.675Z,19.65
2024-02-19T14:37:28.097Z,19.69
2024-02-19T14:42:31.720Z,19.55
2024-02-19T14:47:35.646Z,19.30
2024-02-19T14:52:42.360Z,19.06
2024-02-19T14:57:47.330Z,18.98
2024-02-19T15:02:51.394Z,18.91
2024-02-19T15:07:56.952Z,18.88
2024-02-19T15:13:00.503Z,18.89
2024-02-19T15:18:05.833Z,18.84
2024-02-19T15:23:08.355Z,18.80
2024-02-19T15:28:11.080Z,18.68
2024-02-19T15:33:13.461Z,18.45
2024-02-19T15:38:17.003Z,18.32
2024-02-19T15:43:20.197Z,18.22
2024-02-19T15:48:22.671Z,18.19
2024-02-19T15:53:29.004Z,18.14
2024-02-19T15:58:33.186Z,18.01
2024-02-19T16:03:38.420Z,17.87
2024-02-19T16:08:42.302Z,17.77
2024-02-19T16:13:46.242Z,17.66
2024-02-19T16:18:49.177Z,17.50
2024-02-19T16:23:51.991Z,17.31
2024-02-19T16:28:56.565Z,17.19
2024-02-19T16:34:00.022Z,17.10
2024-02-19T16:39:02.634Z,16.94
2024-02-19T16:44:05.681Z,16.81
2024-02-19T16:49:08.463Z,16.75
2024-02-19T16:54:11.971Z,16.65
2024-02-19T16:59:14.677Z,16.64
2024-02-19T17:04:17.453Z,16.63
2024-02-19T17:09:19.956Z,16.63
2024-02-19T17:14:22.702Z,16.63
2024-02-19T17:19:25.579Z,16.59
2024-02-19T17:24:29.704Z,16.44
2024-02-19T17:29:31.965Z,16.34
2024-02-19T17:34:34.443Z,16.26
2024-02-19T17:39:37.175Z,16.16
2024-02-19T17:44:39.627Z,16.14
2024-02-19T17:49:43.068Z,16.00
2024-02-19T17:54:45.947Z,15.93
2024-02-19T17:59:48.514Z,15.89
2024-02-19T18:04:55.558Z,15.84
2024-02-19T18:09:58.731Z,15.82
2024-02-19T18:15:01.293Z,15.82
2024-02-19T18:20:08.158Z,15.79
2024-02-19T18:25:11.049Z,15.77
2024-02-19T18:30:15.944Z,15.74
2024-02-19T18:35:19.212Z,15.71
2024-02-19T18:40:21.784Z,15.67
2024-02-19T18:45:26.142Z,15.64
2024-02-19T18:50:28.587Z,15.58
2024-02-19T18:55:31.258Z,15.55
2024-02-19T19:00:34.290Z,15.48
2024-02-19T19:05:38.888Z,15.43
2024-02-19T19:10:41.541Z,15.42
2024-02-19T19:15:44.541Z,15.40
2024-02-19T19:20:48.073Z,15.37
2024-02-19T19:25:50.628Z,15.34
2024-02-19T19:30:53.117Z,15.28
2024-02-19T19:35:55.680Z,15.22
2024-02-19T19:41:00.668Z,15.19
2024-02-19T19:46:04.935Z,15.14
2024-02-19T19:54:35.099Z,15.13
2024-02-19T19:59:37.935Z,15.08
2024-02-19T20:04:42.728Z,15.06
2024-02-19T20:13:09.205Z,15.08
2024-02-19T20:18:13.939Z,15.05
2024-02-19T20:23:17.153Z,15.04
2024-02-19T20:28:19.801Z,15.04
2024-02-19T20:33:22.445Z,15.00
2024-02-19T20:38:25.462Z,14.97
2024-02-19T20:43:27.850Z,14.92
2024-02-19T20:48:30.909Z,14.89
2024-02-19T20:53:35.956Z,14.79
2024-02-19T20:58:41.445Z,14.70
2024-02-19T21:03:49.482Z,14.64
2024-02-19T21:13:50.710Z,14.51
2024-02-19T21:19:02.794Z,14.46
2024-02-19T21:24:05.356Z,14.39
2024-02-19T21:32:55.774Z,14.31
2024-02-19T21:37:58.198Z,14.27
2024-02-19T21:43:00.655Z,14.20
2024-02-19T21:48:05.827Z,14.14
2024-02-19T21:53:08.550Z,14.10
2024-02-19T21:58:12.356Z,14.09
2024-02-19T22:03:15.017Z,14.03
2024-02-19T22:08:18.611Z,13.98
2024-02-19T22:13:21.614Z,13.93
2024-02-19T22:18:25.710Z,13.87
2024-02-19T22:23:28.301Z,13.84
2024-02-19T22:28:32.230Z,13.79
2024-02-19T22:33:35.758Z,13.72
2024-02-19T22:38:39.323Z,13.68
2024-02-19T22:43:41.945Z,13.67
2024-02-19T22:48:44.066Z,13.63
2024-02-19T22:53:46.850Z,13.60
2024-02-19T22:58:49.254Z,13.57
2024-02-19T23:04:34.014Z,13.53
2024-02-19T23:10:43.337Z,13.43
2024-02-19T23:16:25.915Z,13.35
2024-02-19T23:22:30.110Z,13.27
2024-02-19T23:28:20.962Z,13.24
2024-02-19T23:33:38.601Z,13.17
2024-02-19T23:38:49.365Z,13.14
2024-02-19T23:43:58.966Z,13.11
2024-02-19T23:49:01.240Z,13.08
2024-02-19T23:54:27.896Z,13.03
2024-02-19T23:59:47.507Z,12.99
